Portada
METAR-TAF:

METAR-TAF

Aeroports :

Wellington, Nova Zelanda

latitud: 41-20S, longitud: 174-48E, altitud: 12 m

Observació

L'informe es va fer fa 37 minuts, a les 22:30 UTC
Vent 12 kt del Nord/Nord-Est
Temperatura 11°C
Humitat 71%
Pressió 1019 hPa
Visibilitat 10 km o més

METAR: NZWN 102230Z AUTO 03012KT 9999 BKN027/// BKN033/// 11/06 Q1019 NOSIG

Hora: 11:07 (23:07 UTC)

Pronòstic

L'informe es va fer fa 6 hores i 5 minuts, a les 17:02 UTC
Pronòstic vàlid del 10 a les 18 UTC al 11 a les 18 UTC
Vent 15 kt del Nord
Visibilitat 10 km o més
Escasses núvols a una alçada de 2000 ft

TAF: NZWN 101702Z 1018/1118 36015KT 9999 FEW020

Observacions i pronòstics meteorològics de més de 4000 aeroports (METAR i TAF).

Les estacions disponibles són els punts grocs i vermells al mapa.

Posi el ratolí al punt desitjat per veure el nom de l'estació.

Feu clic per veure les observacions i els pronòstics meteorològics.

Per canviar el mapa: feu clic els botons verds amb una creu de color negre per apropar; al botó verd amb un guió per allunyar la imatge; o en les fletxes verdes per a mapes adjacents.


METAR-TAF: